createdAt,value
2023-05-16T00:01:27.966Z,3.40
2023-05-16T00:03:55.875Z,3.88
2023-05-16T00:06:24.142Z,3.47
2023-05-16T00:08:51.939Z,4.38
2023-05-16T00:11:22.246Z,4.28
2023-05-16T00:13:51.674Z,3.50
2023-05-16T00:16:22.112Z,3.30
2023-05-16T00:18:50.211Z,3.88
2023-05-16T00:21:18.349Z,3.42
2023-05-16T00:23:46.551Z,3.40
2023-05-16T00:26:14.456Z,2.97
2023-05-16T00:28:44.330Z,3.95
2023-05-16T00:31:12.409Z,3.22
2023-05-16T00:33:40.476Z,3.10
2023-05-16T00:36:08.915Z,3.05
2023-05-16T00:38:36.724Z,3.70
2023-05-16T00:41:04.608Z,3.97
2023-05-16T00:43:32.507Z,3.30
2023-05-16T00:46:02.708Z,2.85
2023-05-16T00:48:30.604Z,2.97
2023-05-16T00:50:58.699Z,3.00
2023-05-16T00:53:26.972Z,3.35
2023-05-16T00:55:55.208Z,3.38
2023-05-16T00:58:24.006Z,3.70
2023-05-16T01:00:51.927Z,3.53
2023-05-16T01:03:22.217Z,4.15
2023-05-16T01:05:51.284Z,3.65
2023-05-16T01:08:19.453Z,2.63
2023-05-16T01:10:54.767Z,3.30
2023-05-16T01:13:29.048Z,3.08
2023-05-16T01:16:05.996Z,4.22
2023-05-16T01:18:44.516Z,2.95
2023-05-16T01:21:17.637Z,3.65
2023-05-16T01:23:54.228Z,4.63
2023-05-16T01:26:27.254Z,3.33
2023-05-16T01:28:56.091Z,3.55
2023-05-16T01:31:24.731Z,3.53
2023-05-16T01:33:52.838Z,2.60
2023-05-16T01:36:26.728Z,2.53
2023-05-16T01:39:03.621Z,2.55
2023-05-16T01:41:42.301Z,3.33
2023-05-16T01:44:19.989Z,2.90
2023-05-16T01:46:49.414Z,4.00
2023-05-16T01:49:21.366Z,3.13
2023-05-16T01:51:52.796Z,3.55
2023-05-16T01:54:23.373Z,3.78
2023-05-16T01:56:54.570Z,2.20
2023-05-16T01:59:24.236Z,2.28
2023-05-16T02:01:55.225Z,2.83
2023-05-16T02:04:24.400Z,3.05
2023-05-16T02:06:52.876Z,3.22
2023-05-16T02:09:20.833Z,3.17
2023-05-16T02:11:48.956Z,2.85
2023-05-16T02:14:18.325Z,2.33
2023-05-16T02:16:46.393Z,2.78
2023-05-16T02:19:14.457Z,2.58
2023-05-16T02:21:42.287Z,2.35
2023-05-16T02:24:10.090Z,2.72
2023-05-16T02:26:38.190Z,3.40
2023-05-16T02:29:06.765Z,2.60
2023-05-16T02:31:36.283Z,2.72
2023-05-16T02:34:04.336Z,2.65
2023-05-16T02:36:32.162Z,2.55
2023-05-16T02:39:00.020Z,3.15
2023-05-16T02:41:27.947Z,2.60
2023-05-16T02:43:55.936Z,3.63
2023-05-16T02:46:28.673Z,3.03
2023-05-16T02:48:58.591Z,2.78
2023-05-16T02:51:27.974Z,2.55
2023-05-16T02:53:57.042Z,2.45
2023-05-16T02:56:25.037Z,2.50
2023-05-16T02:58:54.754Z,2.53
2023-05-16T03:01:22.741Z,2.45
2023-05-16T03:03:51.371Z,2.30
2023-05-16T03:06:20.889Z,2.55
2023-05-16T03:08:48.910Z,2.92
2023-05-16T03:11:19.136Z,2.92
2023-05-16T03:13:46.917Z,3.20
2023-05-16T03:16:15.759Z,2.50
2023-05-16T03:18:43.866Z,3.30
2023-05-16T03:21:11.750Z,3.22
2023-05-16T03:23:40.904Z,2.25
2023-05-16T03:26:08.765Z,3.45
2023-05-16T03:28:36.662Z,2.47
2023-05-16T03:31:04.520Z,3.17
2023-05-16T03:33:32.434Z,2.58
2023-05-16T03:36:00.468Z,2.95
2023-05-16T03:38:28.612Z,2.78
2023-05-16T03:40:57.806Z,3.15
2023-05-16T03:43:25.807Z,2.55
2023-05-16T03:45:53.844Z,2.38
2023-05-16T03:48:21.760Z,2.83
2023-05-16T03:50:49.546Z,2.22
2023-05-16T03:53:17.446Z,2.90
2023-05-16T03:55:48.107Z,2.95
2023-05-16T03:58:18.047Z,2.75
2023-05-16T04:00:46.859Z,2.70
2023-05-16T04:03:14.878Z,3.22
2023-05-16T04:05:42.746Z,3.08
2023-05-16T04:08:10.814Z,3.00
2023-05-16T04:10:38.795Z,2.63
2023-05-16T04:13:06.552Z,2.85
2023-05-16T04:15:35.754Z,3.30
2023-05-16T04:18:04.308Z,2.58
2023-05-16T04:20:33.044Z,3.13
2023-05-16T04:23:01.036Z,2.00
2023-05-16T04:25:29.145Z,2.38
2023-05-16T04:27:57.322Z,2.63
2023-05-16T04:30:25.331Z,2.92
2023-05-16T04:32:54.551Z,2.90
2023-05-16T04:35:23.318Z,2.72
2023-05-16T04:37:51.213Z,2.72
2023-05-16T04:40:19.102Z,2.30
2023-05-16T04:42:46.920Z,2.63
2023-05-16T04:45:14.691Z,2.97
2023-05-16T04:47:42.670Z,3.40
2023-05-16T04:50:12.385Z,3.55
2023-05-16T04:52:40.249Z,2.60
2023-05-16T04:55:09.302Z,2.60
2023-05-16T04:57:37.309Z,2.85
2023-05-16T05:00:08.263Z,2.60
2023-05-16T05:02:36.251Z,2.85
2023-05-16T05:05:04.361Z,3.05
2023-05-16T05:07:34.543Z,2.42
2023-05-16T05:10:02.380Z,3.67
2023-05-16T05:12:30.143Z,3.40
2023-05-16T05:14:58.513Z,2.90
2023-05-16T05:17:26.525Z,3.22
2023-05-16T05:19:54.355Z,3.30
2023-05-16T05:22:22.191Z,3.25
2023-05-16T05:24:51.859Z,3.33
2023-05-16T05:27:19.801Z,3.38
2023-05-16T05:29:47.651Z,3.80
2023-05-16T05:32:15.496Z,3.15
2023-05-16T05:34:43.501Z,3.05
2023-05-16T05:37:11.550Z,3.13
2023-05-16T05:39:39.454Z,2.67
2023-05-16T05:42:09.122Z,2.40
2023-05-16T05:44:37.890Z,2.60
2023-05-16T05:47:06.734Z,2.83
2023-05-16T05:49:35.893Z,2.13
2023-05-16T05:52:03.975Z,2.75
2023-05-16T05:54:32.043Z,2.63
2023-05-16T05:57:00.102Z,1.90
2023-05-16T05:59:29.325Z,2.42
2023-05-16T06:01:58.030Z,3.13
2023-05-16T06:04:25.901Z,2.92
2023-05-16T06:06:53.759Z,2.47
2023-05-16T06:09:22.625Z,2.55
2023-05-16T06:11:51.159Z,2.97
2023-05-16T06:14:19.059Z,2.28
2023-05-16T06:16:48.348Z,2.05
2023-05-16T06:19:16.557Z,2.65
2023-05-16T06:21:44.838Z,2.97
2023-05-16T06:24:12.774Z,2.00
2023-05-16T06:26:40.593Z,3.13
2023-05-16T06:29:08.908Z,2.70
2023-05-16T06:31:36.797Z,2.33
2023-05-16T06:34:06.127Z,2.53
2023-05-16T06:36:34.067Z,2.55
2023-05-16T06:39:01.868Z,2.42
2023-05-16T06:41:29.935Z,2.17
2023-05-16T06:43:57.886Z,2.40
2023-05-16T06:46:26.323Z,2.65
2023-05-16T06:48:54.263Z,2.45
2023-05-16T06:51:23.785Z,2.33
2023-05-16T06:53:51.676Z,2.30
2023-05-16T06:56:19.514Z,2.20
2023-05-16T06:58:47.928Z,2.70
2023-05-16T07:01:15.805Z,2.17
2023-05-16T07:03:44.331Z,2.00
2023-05-16T07:06:12.340Z,2.28
2023-05-16T07:08:41.883Z,2.53
2023-05-16T07:11:11.547Z,2.50
2023-05-16T07:13:39.536Z,3.20
2023-05-16T07:16:08.591Z,2.63
2023-05-16T07:18:36.786Z,1.80
2023-05-16T07:21:04.824Z,2.65
2023-05-16T07:23:34.743Z,2.15
2023-05-16T07:26:04.290Z,1.90
2023-05-16T07:28:32.219Z,2.30
2023-05-16T07:31:00.607Z,2.03
2023-05-16T07:33:28.565Z,1.40
2023-05-16T07:36:07.890Z,2.65
2023-05-16T07:38:36.315Z,2.17
2023-05-16T07:41:06.298Z,1.25
2023-05-16T07:43:35.337Z,1.67
2023-05-16T07:46:03.548Z,2.00
2023-05-16T07:48:31.739Z,1.92
2023-05-16T07:50:59.633Z,1.70
2023-05-16T07:53:27.427Z,2.38
2023-05-16T07:55:55.349Z,1.90
2023-05-16T07:58:24.622Z,2.40
2023-05-16T08:00:52.536Z,2.45
2023-05-16T08:03:20.826Z,10.13
2023-05-16T08:05:49.077Z,3.97
2023-05-16T08:08:16.998Z,2.50
2023-05-16T08:10:45.167Z,2.47
2023-05-16T08:13:13.132Z,2.58
2023-05-16T08:15:42.944Z,2.25
2023-05-16T08:18:14.815Z,1.67
2023-05-16T08:20:43.034Z,2.38
2023-05-16T08:23:10.889Z,1.80
2023-05-16T08:25:38.934Z,1.88
2023-05-16T08:28:06.861Z,1.58
2023-05-16T08:30:34.968Z,2.97
2023-05-16T08:33:05.537Z,2.17
2023-05-16T08:35:35.361Z,1.95
2023-05-16T08:38:04.071Z,1.63
2023-05-16T08:40:32.184Z,1.85
2023-05-16T08:43:00.250Z,2.20
2023-05-16T08:45:28.628Z,1.40
2023-05-16T08:47:57.437Z,1.63
2023-05-16T08:50:27.688Z,1.70
2023-05-16T08:52:55.690Z,1.50
2023-05-16T08:55:24.338Z,1.85
2023-05-16T08:57:52.656Z,1.80
2023-05-16T09:00:21.740Z,1.77
2023-05-16T09:02:50.133Z,1.80
2023-05-16T09:05:18.929Z,2.38
2023-05-16T09:07:48.148Z,1.80
2023-05-16T09:10:16.435Z,1.80
2023-05-16T09:12:46.763Z,1.50
2023-05-16T09:15:14.664Z,1.50
2023-05-16T09:17:45.482Z,1.45
2023-05-16T09:20:15.194Z,1.15
2023-05-16T09:22:53.875Z,1.50
2023-05-16T09:25:30.212Z,1.58
2023-05-16T09:28:00.312Z,2.05
2023-05-16T09:30:30.787Z,1.85
2023-05-16T09:33:01.349Z,1.25
2023-05-16T09:38:01.377Z,1.38
2023-05-16T09:40:29.564Z,1.83
2023-05-16T09:43:06.005Z,1.73
2023-05-16T09:45:34.667Z,1.50
2023-05-16T09:48:05.521Z,1.80
2023-05-16T09:50:35.283Z,2.08
2023-05-16T09:53:05.674Z,1.50
2023-05-16T09:55:33.892Z,1.13
2023-05-16T09:58:01.819Z,1.70
2023-05-16T10:00:31.279Z,1.60
2023-05-16T10:03:02.162Z,1.63
2023-05-16T10:05:32.741Z,1.30
2023-05-16T10:08:01.326Z,1.55
2023-05-16T10:10:31.619Z,1.40
2023-05-16T10:13:02.464Z,1.92
2023-05-16T10:15:30.862Z,1.50
2023-05-16T10:18:02.174Z,1.25
2023-05-16T10:20:30.705Z,1.92
2023-05-16T10:23:00.076Z,1.20
2023-05-16T10:25:33.480Z,1.63
2023-05-16T10:28:01.809Z,1.38
2023-05-16T10:30:29.824Z,1.48
2023-05-16T10:32:59.016Z,1.40
2023-05-16T10:35:27.344Z,2.15
2023-05-16T10:37:56.224Z,1.27
2023-05-16T10:40:25.018Z,1.60
2023-05-16T10:42:58.303Z,1.90
2023-05-16T10:45:26.598Z,1.63
2023-05-16T10:47:56.294Z,1.45
2023-05-16T10:50:39.220Z,1.40
2023-05-16T10:53:14.963Z,1.27
2023-05-16T10:55:46.655Z,2.07
2023-05-16T10:58:20.442Z,1.27
2023-05-16T11:00:49.484Z,1.33
2023-05-16T11:03:26.130Z,1.00
2023-05-16T11:08:22.294Z,1.48
2023-05-16T11:10:50.217Z,1.65
2023-05-16T11:13:25.977Z,1.63
2023-05-16T11:16:28.779Z,1.00
2023-05-16T11:19:05.616Z,1.20
2023-05-16T11:22:17.158Z,1.40
2023-05-16T11:24:56.901Z,1.10
2023-05-16T11:27:27.887Z,1.48
2023-05-16T11:30:03.240Z,1.98
2023-05-16T11:32:33.094Z,1.20
2023-05-16T11:35:01.482Z,1.75
2023-05-16T11:37:29.678Z,1.48
2023-05-16T11:40:00.588Z,1.75
2023-05-16T11:42:31.504Z,1.80
2023-05-16T11:45:07.794Z,1.42
2023-05-16T11:47:38.149Z,1.27
2023-05-16T11:50:07.989Z,1.70
2023-05-16T11:52:35.927Z,1.25
2023-05-16T11:55:06.402Z,2.55
2023-05-16T11:57:34.232Z,1.52
2023-05-16T12:00:08.108Z,1.58
2023-05-16T12:02:37.624Z,1.65
2023-05-16T12:05:10.050Z,2.38
2023-05-16T12:07:38.598Z,1.70
2023-05-16T12:10:07.736Z,1.45
2023-05-16T12:12:35.857Z,1.50
2023-05-16T12:15:04.257Z,1.58
2023-05-16T12:17:32.494Z,1.17
2023-05-16T12:20:02.258Z,1.40
2023-05-16T12:22:30.223Z,1.83
2023-05-16T12:25:00.413Z,1.25
2023-05-16T12:27:28.408Z,1.55
2023-05-16T12:29:59.814Z,1.42
2023-05-16T12:32:27.821Z,2.22
2023-05-16T12:34:56.324Z,1.95
2023-05-16T12:37:25.922Z,1.70
2023-05-16T12:40:01.155Z,1.80
2023-05-16T12:42:28.986Z,2.00
2023-05-16T12:44:57.150Z,2.53
2023-05-16T12:47:24.998Z,1.40
2023-05-16T12:49:54.381Z,1.40
2023-05-16T12:52:23.258Z,1.42
2023-05-16T12:54:52.608Z,1.35
2023-05-16T12:57:21.313Z,1.45
2023-05-16T12:59:50.944Z,1.40
2023-05-16T13:02:19.442Z,1.48
2023-05-16T13:04:47.562Z,1.50
2023-05-16T13:07:15.526Z,1.88
2023-05-16T13:09:43.460Z,1.95
2023-05-16T13:12:14.286Z,1.75
2023-05-16T13:14:43.718Z,1.75
2023-05-16T13:17:12.703Z,1.40
2023-05-16T13:19:40.913Z,1.33
2023-05-16T13:22:08.748Z,1.15
2023-05-16T13:24:36.560Z,1.40
2023-05-16T13:27:04.517Z,1.50
2023-05-16T13:29:33.760Z,1.60
2023-05-16T13:32:01.615Z,1.40
2023-05-16T13:34:29.519Z,1.50
2023-05-16T13:36:57.519Z,0.98
2023-05-16T13:39:26.301Z,1.30
2023-05-16T13:41:54.295Z,1.52
2023-05-16T13:44:22.644Z,1.35
2023-05-16T13:46:52.007Z,1.45
2023-05-16T13:49:19.876Z,2.05
2023-05-16T13:51:48.265Z,1.52
2023-05-16T13:54:16.420Z,1.50
2023-05-16T13:56:46.409Z,1.13
2023-05-16T13:59:18.530Z,2.03
2023-05-16T14:01:56.622Z,1.27
2023-05-16T14:04:24.448Z,1.60
2023-05-16T14:06:52.361Z,1.55
2023-05-16T14:09:20.155Z,1.55
2023-05-16T14:11:47.990Z,1.80
2023-05-16T14:14:15.838Z,1.73
2023-05-16T14:16:46.026Z,1.23
2023-05-16T14:19:18.109Z,1.50
2023-05-16T14:21:47.161Z,1.90
2023-05-16T14:24:14.980Z,1.10
2023-05-16T14:26:42.837Z,1.55
2023-05-16T14:29:10.805Z,1.90
2023-05-16T14:31:38.686Z,1.42
2023-05-16T14:34:06.938Z,2.00
2023-05-16T14:36:36.459Z,1.25
2023-05-16T14:39:04.477Z,1.55
2023-05-16T14:41:32.305Z,2.03
2023-05-16T14:44:00.161Z,1.40
2023-05-16T14:46:28.077Z,1.60
2023-05-16T14:48:55.974Z,1.30
2023-05-16T14:51:24.057Z,1.25
2023-05-16T14:53:53.330Z,1.67
2023-05-16T14:56:21.244Z,1.42
2023-05-16T14:58:49.056Z,1.45
2023-05-16T15:01:17.578Z,1.58
2023-05-16T15:03:54.430Z,1.30
2023-05-16T15:06:24.355Z,1.88
2023-05-16T15:08:53.723Z,1.40
2023-05-16T15:11:21.862Z,1.48
2023-05-16T15:13:49.799Z,1.58
2023-05-16T15:16:17.744Z,1.13
2023-05-16T15:18:46.078Z,1.15
2023-05-16T15:21:13.905Z,1.48
2023-05-16T15:23:42.595Z,1.80
2023-05-16T15:26:11.832Z,1.30
2023-05-16T15:28:39.909Z,1.67
2023-05-16T15:31:07.700Z,0.98
2023-05-16T15:33:35.605Z,1.60
2023-05-16T15:36:03.449Z,1.40
2023-05-16T15:38:31.292Z,1.52
2023-05-16T15:41:14.024Z,1.60
2023-05-16T15:46:15.948Z,1.63
2023-05-16T15:48:44.887Z,1.45
2023-05-16T15:51:13.913Z,1.33
2023-05-16T15:53:41.974Z,1.75
2023-05-16T15:56:10.492Z,1.38
2023-05-16T15:58:38.517Z,1.17
2023-05-16T16:01:07.809Z,2.15
2023-05-16T16:03:35.825Z,1.17
2023-05-16T16:06:04.017Z,2.30
2023-05-16T16:08:31.876Z,1.70
2023-05-16T16:10:59.667Z,1.63
2023-05-16T16:13:27.648Z,1.00
2023-05-16T16:15:55.767Z,1.00
2023-05-16T16:18:25.046Z,1.42
2023-05-16T16:20:53.077Z,1.20
2023-05-16T16:23:21.851Z,1.63
2023-05-16T16:25:50.296Z,1.15
2023-05-16T16:28:19.125Z,1.27
2023-05-16T16:30:50.387Z,1.60
2023-05-16T16:33:18.465Z,1.00
2023-05-16T16:35:48.205Z,0.98
2023-05-16T16:38:16.376Z,0.80
2023-05-16T16:40:44.325Z,1.30
2023-05-16T16:43:12.184Z,1.35
2023-05-16T16:45:40.030Z,1.38
2023-05-16T16:48:09.110Z,1.27
2023-05-16T16:50:37.079Z,1.80
2023-05-16T16:53:06.396Z,1.20
2023-05-16T16:55:34.402Z,1.20
2023-05-16T16:58:02.943Z,0.95
2023-05-16T17:00:31.472Z,1.42
2023-05-16T17:02:59.472Z,1.15
2023-05-16T17:05:27.538Z,1.23
2023-05-16T17:07:55.510Z,1.40
2023-05-16T17:10:24.766Z,1.17
2023-05-16T17:12:52.606Z,0.80
2023-05-16T17:15:20.503Z,1.33
2023-05-16T17:17:49.298Z,1.40
2023-05-16T17:20:17.455Z,1.42
2023-05-16T17:22:46.188Z,1.40
2023-05-16T17:25:14.026Z,1.15
2023-05-16T17:27:44.252Z,1.17
2023-05-16T17:30:12.786Z,1.15
2023-05-16T17:32:40.759Z,0.95
2023-05-16T17:35:12.291Z,0.90
2023-05-16T17:37:41.507Z,1.10
2023-05-16T17:40:16.299Z,1.70
2023-05-16T17:42:45.891Z,1.05
2023-05-16T17:45:14.907Z,1.45
2023-05-16T17:47:43.289Z,1.30
2023-05-16T17:50:12.132Z,1.30
2023-05-16T17:52:40.529Z,0.98
2023-05-16T17:55:10.563Z,1.10
2023-05-16T17:57:38.773Z,1.02
2023-05-16T18:00:09.764Z,1.38
2023-05-16T18:02:38.727Z,0.80
2023-05-16T18:05:07.837Z,0.93
2023-05-16T18:07:35.807Z,1.00
2023-05-16T18:10:03.686Z,1.42
2023-05-16T18:12:31.611Z,1.63
2023-05-16T18:14:59.442Z,1.98
2023-05-16T18:17:28.755Z,0.90
2023-05-16T18:19:56.848Z,0.90
2023-05-16T18:22:24.738Z,1.08
2023-05-16T18:24:52.734Z,1.52
2023-05-16T18:27:20.650Z,1.70
2023-05-16T18:29:48.480Z,1.25
2023-05-16T18:32:16.484Z,1.60
2023-05-16T18:34:45.752Z,1.27
2023-05-16T18:37:13.873Z,0.90
2023-05-16T18:39:43.645Z,1.02
2023-05-16T18:42:11.528Z,0.95
2023-05-16T18:44:39.528Z,1.20
2023-05-16T18:47:08.061Z,0.90
2023-05-16T18:49:39.264Z,1.10
2023-05-16T18:52:09.236Z,1.17
2023-05-16T18:54:37.956Z,1.00
2023-05-16T18:57:07.190Z,1.13
2023-05-16T18:59:36.024Z,1.20
2023-05-16T19:02:04.460Z,1.48
2023-05-16T19:04:32.370Z,1.67
2023-05-16T19:07:02.282Z,1.30
2023-05-16T19:09:33.233Z,1.35
2023-05-16T19:12:01.003Z,1.33
2023-05-16T19:14:28.809Z,1.48
2023-05-16T19:16:56.774Z,1.30
2023-05-16T19:19:25.079Z,1.45
2023-05-16T19:21:53.163Z,1.20
2023-05-16T19:24:21.026Z,1.83
2023-05-16T19:26:50.346Z,1.63
2023-05-16T19:29:19.139Z,1.50
2023-05-16T19:31:47.023Z,2.38
2023-05-16T19:34:15.044Z,1.80
2023-05-16T19:36:42.949Z,2.28
2023-05-16T19:39:10.916Z,2.20
2023-05-16T19:41:38.793Z,2.05
2023-05-16T19:44:08.157Z,1.88
2023-05-16T19:46:36.077Z,1.60
2023-05-16T19:49:04.234Z,1.75
2023-05-16T19:51:41.333Z,1.52
2023-05-16T19:54:10.180Z,1.95
2023-05-16T19:56:38.041Z,2.28
2023-05-16T19:59:07.237Z,1.80
2023-05-16T20:01:35.075Z,2.10
2023-05-16T20:04:04.876Z,1.90
2023-05-16T20:06:33.380Z,1.52
2023-05-16T20:09:01.323Z,2.78
2023-05-16T20:11:29.409Z,3.17
2023-05-16T20:13:59.492Z,1.85
2023-05-16T20:16:28.685Z,2.10
2023-05-16T20:18:56.555Z,2.00
2023-05-16T20:21:24.566Z,2.13
2023-05-16T20:23:52.448Z,1.75
2023-05-16T20:26:21.452Z,2.50
2023-05-16T20:28:49.340Z,1.73
2023-05-16T20:31:17.305Z,1.88
2023-05-16T20:33:46.927Z,1.88
2023-05-16T20:36:14.904Z,2.25
2023-05-16T20:38:42.767Z,1.80
2023-05-16T20:41:10.973Z,2.90
2023-05-16T20:43:38.992Z,2.30
2023-05-16T20:46:06.928Z,2.40
2023-05-16T20:48:34.796Z,2.53
2023-05-16T20:51:04.074Z,2.45
2023-05-16T20:53:31.979Z,2.83
2023-05-16T20:55:59.822Z,2.00
2023-05-16T20:58:27.828Z,1.95
2023-05-16T21:00:55.807Z,1.70
2023-05-16T21:03:23.726Z,1.85
2023-05-16T21:05:51.730Z,2.00
2023-05-16T21:08:21.016Z,3.20
2023-05-16T21:10:48.825Z,1.80
2023-05-16T21:13:16.600Z,2.17
2023-05-16T21:15:44.401Z,1.88
2023-05-16T21:18:12.320Z,2.53
2023-05-16T21:20:40.220Z,1.73
2023-05-16T21:23:08.013Z,2.05
2023-05-16T21:25:37.633Z,2.67
2023-05-16T21:28:06.052Z,3.38
2023-05-16T21:30:33.890Z,1.67
2023-05-16T21:33:02.179Z,2.20
2023-05-16T21:35:30.447Z,1.70
2023-05-16T21:37:58.459Z,1.88
2023-05-16T21:40:26.441Z,2.22
2023-05-16T21:42:55.972Z,1.92
2023-05-16T21:45:24.027Z,1.85
2023-05-16T21:47:51.898Z,2.15
2023-05-16T21:50:19.970Z,2.05
2023-05-16T21:52:47.929Z,2.20
2023-05-16T21:55:15.913Z,1.60
2023-05-16T21:57:43.894Z,1.77
2023-05-16T22:00:14.763Z,2.05
2023-05-16T22:02:42.818Z,2.00
2023-05-16T22:05:11.218Z,1.88
2023-05-16T22:07:39.166Z,2.53
2023-05-16T22:10:08.305Z,1.95
2023-05-16T22:12:36.166Z,2.30
2023-05-16T22:15:04.444Z,1.80
2023-05-16T22:17:33.727Z,2.85
2023-05-16T22:20:02.680Z,1.50
2023-05-16T22:22:30.488Z,1.95
2023-05-16T22:24:58.377Z,2.58
2023-05-16T22:27:26.474Z,2.70
2023-05-16T22:29:54.299Z,1.83
2023-05-16T22:32:22.327Z,2.20
2023-05-16T22:34:52.805Z,1.63
2023-05-16T22:37:20.653Z,2.03
2023-05-16T22:39:48.738Z,1.95
2023-05-16T22:42:16.604Z,2.65
2023-05-16T22:44:44.406Z,2.15
2023-05-16T22:47:12.207Z,1.90
2023-05-16T22:49:40.078Z,2.60
2023-05-16T22:52:09.655Z,2.22
2023-05-16T22:54:37.541Z,2.35
2023-05-16T22:57:05.644Z,1.50
2023-05-16T22:59:34.196Z,1.92
2023-05-16T23:02:02.001Z,1.83
2023-05-16T23:04:29.813Z,2.50
2023-05-16T23:06:57.676Z,2.22
2023-05-16T23:09:27.014Z,1.92
2023-05-16T23:11:55.013Z,3.75
2023-05-16T23:14:22.869Z,2.50
2023-05-16T23:16:50.705Z,2.45
2023-05-16T23:19:18.734Z,2.35
2023-05-16T23:21:46.801Z,2.80
2023-05-16T23:24:14.770Z,2.05
2023-05-16T23:26:44.038Z,2.28
2023-05-16T23:29:12.067Z,2.00
2023-05-16T23:31:40.204Z,2.60
2023-05-16T23:34:08.352Z,2.30
2023-05-16T23:36:36.269Z,1.98
2023-05-16T23:39:04.136Z,1.80
2023-05-16T23:41:32.065Z,2.00
2023-05-16T23:44:01.268Z,2.42
2023-05-16T23:54:04.824Z,2.88
2023-05-16T23:56:32.913Z,3.85
2023-05-16T23:59:02.515Z,2.50
